Dotnuva, Lithuania

1:25 AM EET on November 29, 2014 (GMT +0200)
Kaunas International | Change Station
CLOSE
Current Station
Airport
Location: Kaunas,
Elevation: 256 ft
Nearby Weather Stations

Elev 256 ft 54.96 °N, 24.08 °E | Updated 5 minutes ago

Overcast
Overcast
19 °F
Feels Like 13 °F
N
5
Wind Variable Wind from ENE

Today
High -- | Low -- °F
--% Chance of Precip.
Yesterday
High -- | Low -- °F
Precip. -- in
8:24 AM 4:00 PM
Waxing Crescent, 45% visible
Pressure 30.54 in
Visibility 5.6 miles
Clouds Overcast 600 ft
Windchill 13 °F
Dew Point 16 °F
Humidity 86%
Rainfall 0.00 in
Snow Depth Not available.
UV 0 out of 12
Pollen Not available.
Air Quality Not available.
Flu Activity Not available.
METAR EYKA 282320Z AUTO 07004KT 020V100 9000 OVC006/// M07/M09 Q1034

More Conditions Fewer Conditions

Pressure 30.54 in
Visibility 5.6 miles
Clouds Overcast 600 ft
Windchill 13 °F
Dew Point 16 °F
Humidity 86%
Rainfall 0.00 in
Snow Depth Not available.
UV 0 out of 12
Pollen Not available.
Air Quality Not available.
Flu Activity Not available.
METAR EYKA 282320Z AUTO 07004KT 020V100 9000 OVC006/// M07/M09 Q1034

More Conditions Fewer Conditions

10-Day Weather Forecast

Almanac

Astronomy

Nov. 29, 2014 Rise Set
Actual Time
Civil Twilight
Nautical Twilight
Astronomical Twilight
Moon
Length of Visible Light
Length of Day
Tomorrow will be .
, % of the Moon is Illuminated

Today's Extremes

Country Highs Country Lows

Community

WunderPhotos

Upload Photos

1,774,335 photos uploaded!

WunderBlogs® & News

Nearby

Air Quality

  Air Quality AQ Index Pollutant
Not available.

Snow Depth

Station Depth Elevation

Earthquake Activity

City Distance Mag. Time & Date
Minimum magnitude displayed is 2.5.

Coastal Water Temperatures

Place Temperature

Nearby Weather Stations